メインページ
METAR-TAF:

METAR-TAF

空港 :

Mackenzie, ブリティッシュコロンビア州, カナダ

緯度: 55-18N, 経度: 123-08W, 海抜: 695m

現時点の気象観測

当レポートは21分前の20:20(UTC)に作成
南/南東の風 14kt、最大22ktの突風を伴う
気温 1°C
湿度 86%
気圧 988 hPa
視程: 14.5km
高度2000ftの雲は散在している
高度2600ftの雲は散在している
高度3300ftの千切れ雲あり
高度4900ftの曇り

METAR: CYZY 112020Z AUTO 15014G22KT 9SM SCT020 SCT026 BKN033 OVC049 01/M01 A2918 RMK SLP911

時間: 12:41 (20:41 UTC)

予報

当レポートは2時間1分前の18:40(UTC)に作成
予報は11日の 19時(UTC)から 12日の 07時(UTC)まで有効
南/南東の風 12kt、最大22ktの突風を伴う
視程: 3.2km
高度800ftの千切れ雲あり
高度1500ftの曇り
小雪
11日の 19時(UTC)から 11日の 20時(UTC)まで一時的に
視程: 9.7km
高度800ftの雲は散在している
高度1500ftの千切れ雲あり
高度4000ftの曇り
小雪
11日の 2000時(UTC)から
の風 12kt、最大22ktの突風を伴う
視程: 10km
高度4000ftの雲は散在している
高度12000ftの千切れ雲あり
11日の 20時(UTC)から 12日の 07時(UTC)まで一時的に
視程: 6.4km
高度4000ftの千切れ雲あり
高度10000ftの千切れ雲あり
小雪

TAF: CYZY 111840Z 1119/1207 15012G22KT 2SM -SN BKN008 OVC015 TEMPO 1119/1120 6SM -SN SCT008 BKN015 OVC040 FM112000 17012G22KT P6SM SCT040 BKN120 TEMPO 1120/1207 4SM -SN BKN040 BKN100 RMK FCST BASED ON AUTO OBS. NXT FCST BY 120100Z

4,000以上の空港の気象観測と天気予報(METAR報とTAF報)

利用可能な観測所は地図上に黄色い丸と赤い丸で示す。

丸の上にカーソルを重ねると観測所名を参照できる。

次にクリックすると気象観測と天気予報を参照できる。

マップの切り替え:黒色「×」印の緑ボタンをクリックして拡大、「-」印の緑ボタンをクリックして縮小、緑色の三角印をクリックして隣りの地図に切り替え


METAR-TAF: